Time;durP1;ratioP1;P1;durP2;ratioP2;P2;SDS_P1;SDS_P2;PMS_P1;PMS_P2;Temp;Humidity;BMP_temperature;BMP_pressure;BME280_temperature;BME280_humidity;BME280_pressure;Samples;Min_cycle;Max_cycle;Signal;HPM_P1;HPM_P2
2023/06/06 00:00:37;;;;;;;4.82;2.60;;;;;;;18.85;55.09;99853.88;1087292;54;20030;-82
2023/06/06 00:01:40;;;;;;;4.25;2.53;;;;;;;18.80;55.01;99854.50;1087380;54;20027;-82
2023/06/06 00:02:46;;;;;;;5.68;2.63;;;;;;;18.69;55.38;99864.03;1088095;47;20030;-83
2023/06/06 00:03:50;;;;;;;4.88;2.67;;;;;;;18.62;55.48;99859.63;1087721;47;20026;-83
2023/06/06 00:04:55;;;;;;;4.75;2.75;;;;;;;18.59;55.40;99860.88;1087964;54;20031;-83
2023/06/06 00:05:59;;;;;;;4.40;2.78;;;;;;;18.61;55.67;99861.53;1088069;54;20014;-83
2023/06/06 00:07:03;;;;;;;4.70;2.97;;;;;;;18.52;56.02;99851.91;1088086;54;20106;-82
2023/06/06 00:08:07;;;;;;;5.22;2.88;;;;;;;18.56;55.39;99853.19;1087695;54;20446;-83
2023/06/06 00:09:11;;;;;;;4.40;2.40;;;;;;;18.65;55.48;99851.13;1087462;54;20041;-84
2023/06/06 00:10:16;;;;;;;4.10;2.38;;;;;;;18.55;55.38;99844.22;1087499;54;20031;-85
2023/06/06 00:11:20;;;;;;;5.13;2.90;;;;;;;18.54;55.83;99852.53;1087780;39;20384;-83
2023/06/06 00:12:21;;;;;;;4.40;2.42;;;;;;;18.65;55.05;99853.81;1087457;54;20042;-81
2023/06/06 00:13:27;;;;;;;4.68;2.47;;;;;;;18.67;55.32;99855.28;1087570;54;20046;-84
2023/06/06 00:14:31;;;;;;;4.25;2.65;;;;;;;18.64;55.23;99846.72;1087461;54;20040;-81
2023/06/06 00:15:35;;;;;;;5.53;2.83;;;;;;;18.47;55.73;99857.91;1087122;54;20065;-84
2023/06/06 00:16:36;;;;;;;4.28;2.42;;;;;;;18.36;56.04;99850.38;1087138;54;20026;-83
2023/06/06 00:17:41;;;;;;;4.72;2.78;;;;;;;18.37;55.97;99852.03;1087414;54;20030;-82
2023/06/06 00:18:42;;;;;;;5.47;2.97;;;;;;;18.37;55.92;99854.75;1087480;54;20106;-84
2023/06/06 00:19:47;;;;;;;5.05;3.00;;;;;;;18.32;56.10;99852.63;1087286;54;20081;-82
2023/06/06 00:20:48;;;;;;;4.60;2.72;;;;;;;18.39;56.09;99850.81;1087170;47;20034;-83
2023/06/06 00:21:52;;;;;;;4.53;2.80;;;;;;;18.36;55.80;99853.94;1087195;54;20037;-84
2023/06/06 00:22:53;;;;;;;4.65;2.70;;;;;;;18.31;56.00;99852.84;1087177;47;20034;-85
2023/06/06 00:23:58;;;;;;;4.50;2.55;;;;;;;18.37;55.73;99854.75;1087202;54;20080;-84
2023/06/06 00:24:59;;;;;;;4.25;2.45;;;;;;;18.40;55.80;99848.94;1087156;47;20030;-83
2023/06/06 00:26:05;;;;;;;4.50;2.70;;;;;;;18.47;55.50;99859.78;1087199;54;20038;-84
2023/06/06 00:27:07;;;;;;;4.05;2.42;;;;;;;18.47;55.32;99866.03;1087390;54;20090;-85
2023/06/06 00:28:11;;;;;;;4.68;2.72;;;;;;;18.45;55.37;99853.75;1087402;54;20042;-85
2023/06/06 00:29:12;;;;;;;4.30;2.50;;;;;;;18.44;55.43;99858.31;1087378;54;20027;-83
2023/06/06 00:30:17;;;;;;;3.92;2.42;;;;;;;18.47;55.47;99860.63;1087382;54;20041;-85
2023/06/06 00:31:19;;;;;;;4.40;2.50;;;;;;;18.52;55.52;99868.16;1087086;46;20031;-83
2023/06/06 00:32:23;;;;;;;4.60;2.72;;;;;;;18.48;55.42;99862.31;1087162;47;20034;-85
2023/06/06 00:33:24;;;;;;;4.68;3.00;;;;;;;18.44;55.49;99865.63;1087209;54;20031;-83
2023/06/06 00:34:28;;;;;;;4.28;2.78;;;;;;;18.34;55.67;99858.69;1087473;54;20035;-83
2023/06/06 00:35:29;;;;;;;4.28;2.72;;;;;;;18.32;55.70;99854.53;1087315;54;20034;-84
2023/06/06 00:36:33;;;;;;;4.45;2.65;;;;;;;18.36;55.79;99861.19;1087134;47;20026;-85
2023/06/06 00:37:34;;;;;;;4.82;2.97;;;;;;;18.32;55.91;99857.22;1087160;54;20042;-85
2023/06/06 00:38:38;;;;;;;4.60;2.88;;;;;;;18.33;55.72;99859.72;1087154;47;20030;-83
2023/06/06 00:39:39;;;;;;;4.38;2.60;;;;;;;18.36;55.47;99863.91;1087105;54;20099;-83
2023/06/06 00:40:43;;;;;;;4.03;2.28;;;;;;;18.42;55.48;99859.56;1087168;47;20084;-82
2023/06/06 00:41:48;;;;;;;4.47;2.35;;;;;;;18.47;55.05;99860.63;1087045;47;20030;-81
2023/06/06 00:42:52;;;;;;;4.05;2.72;;;;;;;18.49;54.96;99857.72;1087232;54;20050;-82
2023/06/06 00:43:54;;;;;;;4.13;2.33;;;;;;;18.55;54.95;99867.75;1087312;54;20041;-84
2023/06/06 00:44:57;;;;;;;3.92;2.38;;;;;;;18.63;54.63;99859.44;1087148;47;20038;-84
2023/06/06 00:45:59;;;;;;;5.05;2.20;;;;;;;18.62;54.57;99857.78;1087059;54;20053;-82
2023/06/06 00:47:05;;;;;;;3.40;2.03;;;;;;;18.63;54.31;99864.00;1087383;54;20051;-85
2023/06/06 00:48:07;;;;;;;4.20;2.30;;;;;;;18.50;54.87;99854.81;1087414;54;20026;-83
2023/06/06 00:49:14;;;;;;;4.93;2.65;;;;;;;18.43;54.92;99859.34;1087281;54;20034;-84
2023/06/06 00:50:16;;;;;;;4.40;2.78;;;;;;;18.41;54.99;99856.03;1087430;54;20026;-82
2023/06/06 00:51:20;;;;;;;4.13;2.47;;;;;;;18.39;55.17;99864.31;1087165;47;20026;-81
2023/06/06 00:52:23;;;;;;;4.40;2.50;;;;;;;18.43;55.32;99870.16;1087135;54;20034;-84
2023/06/06 00:53:27;;;;;;;4.07;2.40;;;;;;;18.39;54.96;99864.31;1087293;54;20037;-82
2023/06/06 00:54:31;;;;;;;3.85;2.08;;;;;;;18.40;55.07;99859.78;1087045;47;20082;-81
2023/06/06 00:55:35;;;;;;;4.53;2.78;;;;;;;18.38;55.13;99868.06;1087226;47;20061;-86
2023/06/06 00:56:37;;;;;;;4.60;2.65;;;;;;;18.48;55.01;99862.31;1087119;54;20391;-82
2023/06/06 00:57:44;;;;;;;4.38;2.50;;;;;;;18.50;54.63;99859.38;1087370;54;20030;-83
2023/06/06 00:58:47;;;;;;;4.63;2.67;;;;;;;18.50;54.62;99862.94;1087167;47;20048;-84
2023/06/06 00:59:51;;;;;;;3.83;2.53;;;;;;;18.48;54.61;99856.88;1087253;47;20123;-82
2023/06/06 01:00:52;;;;;;;5.15;2.88;;;;;;;18.41;54.86;99861.44;1087280;47;20030;-84
2023/06/06 01:01:58;;;;;;;4.65;2.78;;;;;;;18.30;55.36;99859.28;1087297;47;20991;-83
2023/06/06 01:03:03;;;;;;;4.10;2.65;;;;;;;18.30;55.03;99864.72;1087443;54;20064;-83
2023/06/06 01:04:10;;;;;;;4.78;2.97;;;;;;;18.21;55.30;99864.03;1087599;54;20042;-82
2023/06/06 01:05:11;;;;;;;4.95;2.75;;;;;;;18.18;55.23;99861.75;1087465;47;20027;-83
2023/06/06 01:06:15;;;;;;;4.55;2.53;;;;;;;18.20;55.22;99860.50;1087296;47;20031;-82
2023/06/06 01:07:17;;;;;;;9.18;2.38;;;;;;;18.14;55.31;99858.56;1087340;47;20027;-85
2023/06/06 01:08:23;;;;;;;5.18;2.60;;;;;;;18.18;55.33;99862.56;1087236;47;20042;-84
2023/06/06 01:09:26;;;;;;;4.47;2.58;;;;;;;18.23;54.98;99860.06;1087188;47;20042;-84
2023/06/06 01:10:30;;;;;;;4.82;2.67;;;;;;;18.16;55.27;99855.69;1087261;54;20038;-84
2023/06/06 01:11:40;;;;;;;3.97;2.50;;;;;;;18.17;55.32;99855.47;1087452;54;20105;-83
2023/06/06 01:12:58;;;;;;;8.13;3.00;;;;;;;18.21;55.10;99856.75;1087518;54;20035;-85
2023/06/06 01:14:11;;;;;;;4.35;2.65;;;;;;;18.28;55.08;99861.38;1087390;47;20022;-84
2023/06/06 01:15:20;;;;;;;4.93;2.50;;;;;;;18.15;55.11;99865.66;1087388;47;20031;-83
2023/06/06 01:16:23;;;;;;;4.85;2.90;;;;;;;18.12;55.28;99859.81;1087357;54;20027;-83
2023/06/06 01:17:28;;;;;;;4.22;2.60;;;;;;;18.04;55.41;99863.53;1087551;54;20106;-84
2023/06/06 01:18:31;;;;;;;4.30;2.50;;;;;;;18.01;55.39;99867.44;1087548;54;20031;-85
2023/06/06 01:19:37;;;;;;;4.72;2.60;;;;;;;17.99;55.55;99860.56;1087124;47;20018;-85
2023/06/06 01:20:40;;;;;;;5.85;2.92;;;;;;;17.97;55.50;99863.47;1087221;54;20027;-82
2023/06/06 01:21:47;;;;;;;6.35;3.00;;;;;;;17.99;55.61;99864.13;1087025;47;20027;-84
2023/06/06 01:22:48;;;;;;;4.63;2.67;;;;;;;18.04;55.21;99858.13;1087045;47;20034;-83
2023/06/06 01:23:53;;;;;;;4.65;2.63;;;;;;;18.07;55.16;99855.84;1087021;47;20026;-85
2023/06/06 01:24:55;;;;;;;4.95;2.55;;;;;;;18.01;55.07;99853.09;1087024;54;20046;-82
2023/06/06 01:26:05;;;;;;;5.75;3.15;;;;;;;17.92;55.54;99864.03;1087253;47;20033;-83
2023/06/06 01:27:07;;;;;;;6.38;2.95;;;;;;;17.84;55.92;99856.09;1087019;47;20030;-83
2023/06/06 01:28:13;;;;;;;3.70;2.25;;;;;;;17.86;55.50;99858.56;1087365;54;20022;-83
2023/06/06 01:29:14;;;;;;;5.07;2.40;;;;;;;17.81;55.80;99858.31;1087127;47;20034;-83
2023/06/06 01:30:22;;;;;;;4.40;2.65;;;;;;;17.75;56.16;99851.84;1087033;47;20082;-82
2023/06/06 01:31:32;;;;;;;5.07;2.90;;;;;;;17.82;55.62;99858.13;1087096;47;20102;-85
2023/06/06 01:32:44;;;;;;;4.80;2.65;;;;;;;17.85;55.52;99859.59;1087180;54;20030;-82
2023/06/06 01:33:52;;;;;;;5.32;2.53;;;;;;;17.92;55.48;99853.22;1087085;47;20052;-83
2023/06/06 01:35:03;;;;;;;4.38;2.72;;;;;;;17.88;55.32;99857.34;1087051;47;20042;-83
2023/06/06 01:36:15;;;;;;;3.83;2.28;;;;;;;17.77;56.01;99849.78;1086942;47;20045;-83
2023/06/06 01:37:31;;;;;;;4.55;2.83;;;;;;;17.75;55.72;99854.56;1087126;54;20042;-84
2023/06/06 01:38:40;;;;;;;4.00;2.58;;;;;;;17.82;55.29;99860.00;1087296;47;20022;-85
2023/06/06 01:39:48;;;;;;;5.03;2.80;;;;;;;17.74;55.72;99855.59;1087078;54;20098;-83
2023/06/06 01:40:53;;;;;;;4.45;2.70;;;;;;;17.70;55.76;99851.59;1086941;47;20086;-81
2023/06/06 01:42:00;;;;;;;4.63;2.58;;;;;;;17.67;55.81;99857.38;1087073;54;20034;-82
2023/06/06 01:43:06;;;;;;;5.13;2.80;;;;;;;17.64;55.84;99860.50;1087285;54;20030;-85
2023/06/06 01:44:09;;;;;;;4.20;2.50;;;;;;;17.60;55.92;99857.34;1087048;47;20022;-81
2023/06/06 01:45:15;;;;;;;5.95;3.53;;;;;;;17.67;55.63;99854.69;1087029;54;20041;-85
2023/06/06 01:46:18;;;;;;;4.95;2.70;;;;;;;17.59;55.85;99856.50;1087023;47;20057;-84
2023/06/06 01:47:24;;;;;;;4.65;2.80;;;;;;;17.67;55.49;99860.09;1087340;47;20038;-82
2023/06/06 01:48:26;;;;;;;5.13;3.30;;;;;;;17.55;56.06;99855.25;1087035;47;20026;-84
2023/06/06 01:49:30;;;;;;;6.95;3.17;;;;;;;17.52;56.38;99857.50;1086890;47;20052;-86
2023/06/06 01:50:32;;;;;;;5.88;3.42;;;;;;;17.50;56.68;99860.38;1087013;54;21120;-83
2023/06/06 01:51:36;;;;;;;6.13;3.35;;;;;;;17.48;57.26;99865.13;1087046;47;20023;-83
2023/06/06 01:52:40;;;;;;;5.95;3.35;;;;;;;17.40;58.16;99865.28;1087005;54;20435;-83
2023/06/06 01:53:45;;;;;;;6.72;3.60;;;;;;;17.50;57.71;99857.66;1087886;39;20282;-86
2023/06/06 01:54:46;;;;;;;5.03;3.13;;;;;;;17.57;57.54;99858.56;1087005;47;20034;-83
2023/06/06 01:55:50;;;;;;;5.72;3.10;;;;;;;17.50;57.83;99857.66;1086987;47;20030;-83
2023/06/06 01:56:52;;;;;;;5.28;3.28;;;;;;;17.45;57.82;99868.25;1086989;47;20023;-83
2023/06/06 01:57:56;;;;;;;5.53;3.22;;;;;;;17.42;58.31;99868.63;1086929;47;20026;-83
2023/06/06 01:58:58;;;;;;;4.65;3.00;;;;;;;17.52;57.81;99869.13;1086946;47;20332;-83
2023/06/06 02:00:04;;;;;;;6.28;3.55;;;;;;;17.44;58.09;99858.47;1087001;47;20031;-83
2023/06/06 02:01:15;;;;;;;5.45;3.13;;;;;;;17.40;58.15;99865.28;1086978;54;20441;-83
2023/06/06 02:02:20;;;;;;;6.15;3.65;;;;;;;17.46;58.17;99869.91;1086946;47;20061;-84
2023/06/06 02:03:21;;;;;;;5.65;3.55;;;;;;;17.46;58.18;99875.31;1086942;47;20022;-83
2023/06/06 02:04:25;;;;;;;6.93;3.45;;;;;;;17.37;58.71;99871.91;1086962;54;20090;-83
2023/06/06 02:05:26;;;;;;;5.97;3.28;;;;;;;17.35;58.68;99867.72;1087009;47;20034;-84
2023/06/06 02:06:32;;;;;;;7.00;3.63;;;;;;;17.34;58.71;99874.97;1086939;47;20053;-83
2023/06/06 02:07:34;;;;;;;5.95;3.85;;;;;;;17.38;58.56;99876.28;1086907;54;20022;-83
2023/06/06 02:08:44;;;;;;;6.40;3.67;;;;;;;17.40;58.21;99876.06;1086955;47;20031;-84
2023/06/06 02:09:45;;;;;;;5.63;3.40;;;;;;;17.35;58.32;99873.13;1087001;47;20026;-86
2023/06/06 02:10:48;;;;;;;5.32;3.55;;;;;;;17.41;58.10;99875.06;1086867;47;20038;-84
2023/06/06 02:11:50;;;;;;;5.65;3.60;;;;;;;17.46;57.90;99880.72;1086932;54;20035;-85
2023/06/06 02:12:54;;;;;;;7.07;3.58;;;;;;;17.36;58.22;99875.63;1087021;47;20038;-81
2023/06/06 02:13:57;;;;;;;6.68;3.30;;;;;;;17.38;57.85;99880.88;1087035;54;20031;-84
2023/06/06 02:15:02;;;;;;;6.65;3.08;;;;;;;17.34;57.83;99874.97;1087034;54;20026;-80
2023/06/06 02:16:05;;;;;;;4.70;3.10;;;;;;;17.33;57.97;99877.88;1086971;47;20050;-83
2023/06/06 02:17:08;;;;;;;5.70;3.03;;;;;;;17.37;57.76;99876.47;1086895;47;20026;-82
2023/06/06 02:18:09;;;;;;;5.55;3.53;;;;;;;17.25;57.86;99882.41;1086956;47;20023;-83
2023/06/06 02:19:13;;;;;;;4.70;3.17;;;;;;;17.27;57.94;99872.25;1086811;47;20107;-82
2023/06/06 02:20:17;;;;;;;6.25;3.15;;;;;;;17.26;57.74;99881.38;1087004;47;20030;-82
2023/06/06 02:21:20;;;;;;;4.47;2.90;;;;;;;17.30;57.86;99876.41;1087014;54;20030;-81
2023/06/06 02:22:24;;;;;;;5.05;2.75;;;;;;;17.29;57.80;99875.56;1086955;47;20022;-82
2023/06/06 02:23:28;;;;;;;5.72;2.80;;;;;;;17.26;57.52;99875.13;1086871;54;20035;-82
2023/06/06 02:24:33;;;;;;;5.57;3.13;;;;;;;17.21;57.83;99880.28;1086884;54;20034;-83
2023/06/06 02:25:37;;;;;;;6.40;3.30;;;;;;;17.16;58.06;99872.75;1086924;47;20061;-83
2023/06/06 02:26:41;;;;;;;5.18;3.35;;;;;;;17.17;58.03;99877.13;1086958;47;20030;-83
2023/06/06 02:27:48;;;;;;;6.72;3.03;;;;;;;17.24;57.54;99874.50;1086941;47;20026;-81
2023/06/06 02:28:51;;;;;;;6.03;3.22;;;;;;;17.25;57.60;99878.84;1086962;51;20075;-82
2023/06/06 02:29:55;;;;;;;5.93;3.08;;;;;;;17.28;57.56;99879.31;1086959;47;20061;-83
2023/06/06 02:30:57;;;;;;;4.75;2.85;;;;;;;17.22;57.64;99880.06;1086962;47;20043;-81
2023/06/06 02:32:00;;;;;;;4.10;2.50;;;;;;;17.21;57.61;99883.78;1086808;47;20114;-81
2023/06/06 02:33:03;;;;;;;5.32;3.20;;;;;;;17.24;57.35;99882.59;1086945;47;20769;-81
2023/06/06 02:34:06;;;;;;;4.78;2.67;;;;;;;17.14;57.47;99878.31;1086916;54;20042;-84
2023/06/06 02:35:08;;;;;;;4.53;3.00;;;;;;;17.12;57.76;99879.53;1086893;47;20026;-81
2023/06/06 02:36:14;;;;;;;5.30;3.10;;;;;;;17.04;57.61;99880.53;1088116;46;20046;-80
2023/06/06 02:37:16;;;;;;;4.50;2.78;;;;;;;17.02;57.66;99885.28;1086819;47;20030;-81
2023/06/06 02:38:20;;;;;;;5.03;3.03;;;;;;;16.97;57.81;99885.00;1087000;54;20086;-82
2023/06/06 02:39:22;;;;;;;5.05;3.08;;;;;;;16.91;58.01;99889.25;1087140;47;20041;-82
2023/06/06 02:40:29;;;;;;;5.05;2.85;;;;;;;16.88;58.11;99886.09;1087402;47;20026;-83
2023/06/06 02:41:34;;;;;;;4.35;2.63;;;;;;;17.00;57.96;99895.41;1087268;46;20410;-83
2023/06/06 02:42:39;;;;;;;4.57;2.80;;;;;;;17.03;57.57;99886.94;1087270;51;20433;-84
2023/06/06 02:43:42;;;;;;;5.95;2.90;;;;;;;16.96;57.99;99886.88;1087231;47;20057;-82
2023/06/06 02:44:46;;;;;;;4.35;2.42;;;;;;;16.91;58.16;99885.72;1087276;47;20076;-83
2023/06/06 02:45:48;;;;;;;6.15;3.08;;;;;;;16.81;58.10;99894.16;1087286;47;20630;-82
2023/06/06 02:46:52;;;;;;;5.38;3.40;;;;;;;16.79;58.23;99893.50;1087096;47;20034;-84
2023/06/06 02:47:53;;;;;;;6.40;3.67;;;;;;;16.65;58.60;99895.19;1089201;39;20295;-84
2023/06/06 02:48:57;;;;;;;5.60;3.30;;;;;;;16.64;58.59;99894.34;1087240;47;20038;-82
2023/06/06 02:49:59;;;;;;;5.97;3.33;;;;;;;16.63;58.71;99891.84;1087192;54;20397;-83
2023/06/06 02:51:04;;;;;;;5.32;3.20;;;;;;;16.52;59.03;99890.47;1087222;47;20078;-83
2023/06/06 02:52:06;;;;;;;5.82;3.78;;;;;;;16.51;58.91;99892.31;1087056;46;20022;-83
2023/06/06 02:53:11;;;;;;;4.75;3.20;;;;;;;16.41;59.35;99894.44;1087212;47;20026;-82
2023/06/06 02:54:12;;;;;;;6.50;4.00;;;;;;;16.44;59.21;99894.09;1087180;47;20023;-84
2023/06/06 02:55:17;;;;;;;7.40;4.20;;;;;;;16.44;59.29;99893.22;1087261;47;20038;-84
2023/06/06 02:56:21;;;;;;;5.65;3.65;;;;;;;16.55;59.01;99889.25;1087163;47;20086;-83
2023/06/06 02:57:25;;;;;;;5.40;3.78;;;;;;;16.50;59.25;99892.50;1087259;46;20031;-82
2023/06/06 02:58:27;;;;;;;6.43;4.03;;;;;;;16.55;58.89;99892.78;1087211;54;20030;-83
2023/06/06 02:59:31;;;;;;;5.72;3.72;;;;;;;16.63;58.90;99897.25;1087279;47;20030;-82
2023/06/06 03:00:32;;;;;;;7.53;3.83;;;;;;;16.63;58.56;99889.13;1087371;47;20090;-82
2023/06/06 03:01:36;;;;;;;5.95;4.13;;;;;;;16.63;58.90;99889.97;1087258;47;20115;-83
2023/06/06 03:02:38;;;;;;;5.85;3.60;;;;;;;16.55;58.99;99890.06;1087162;47;20026;-83
2023/06/06 03:03:42;;;;;;;5.35;3.50;;;;;;;16.58;59.06;99888.88;1087247;54;20039;-82
2023/06/06 03:04:43;;;;;;;5.05;3.50;;;;;;;16.52;59.03;99894.00;1087236;47;20022;-81
2023/06/06 03:05:51;;;;;;;5.45;3.65;;;;;;;16.61;58.81;99893.88;1087210;54;20034;-81
2023/06/06 03:06:52;;;;;;;5.72;3.67;;;;;;;16.62;58.85;99891.03;1087457;54;20052;-82
2023/06/06 03:07:56;;;;;;;4.90;3.25;;;;;;;16.71;58.59;99893.59;1087199;47;20030;-83
2023/06/06 03:08:57;;;;;;;5.45;3.55;;;;;;;16.75;58.62;99894.88;1087322;47;20446;-83
2023/06/06 03:10:02;;;;;;;4.80;3.05;;;;;;;16.69;58.56;99897.31;1087203;47;20109;-81
2023/06/06 03:11:12;;;;;;;5.38;3.20;;;;;;;16.71;58.56;99897.13;1087627;39;20316;-81
2023/06/06 03:12:18;;;;;;;5.15;3.53;;;;;;;16.66;58.72;99899.56;1087335;46;20031;-84
2023/06/06 03:13:20;;;;;;;5.72;3.28;;;;;;;16.67;58.57;99895.84;1087313;54;20105;-82
2023/06/06 03:14:25;;;;;;;5.03;3.30;;;;;;;16.68;58.73;99901.06;1087153;47;20030;-83
2023/06/06 03:15:26;;;;;;;8.00;3.22;;;;;;;16.67;58.45;99899.38;1087294;54;20052;-81
2023/06/06 03:16:30;;;;;;;5.22;3.30;;;;;;;16.69;58.29;99893.78;1087133;47;20041;-81
2023/06/06 03:17:32;;;;;;;4.68;3.00;;;;;;;16.64;58.71;99896.22;1087136;47;20098;-81
2023/06/06 03:18:37;;;;;;;5.90;2.67;;;;;;;16.69;58.72;99905.41;1087137;47;20031;-82
2023/06/06 03:19:45;;;;;;;6.18;3.15;;;;;;;16.68;58.58;99902.88;1087217;47;20053;-83
2023/06/06 03:20:53;;;;;;;5.47;3.20;;;;;;;16.65;58.47;99904.13;1087307;47;20027;-83
2023/06/06 03:21:57;;;;;;;4.43;2.60;;;;;;;16.72;58.42;99906.09;1087107;47;20057;-83
2023/06/06 03:23:01;;;;;;;4.97;3.17;;;;;;;16.71;58.55;99899.81;1087233;47;20046;-83
2023/06/06 03:24:03;;;;;;;5.53;3.83;;;;;;;16.71;58.57;99901.69;1087210;47;20033;-84
2023/06/06 03:25:09;;;;;;;5.50;3.42;;;;;;;16.74;58.54;99909.41;1087184;47;20027;-82
2023/06/06 03:26:11;;;;;;;5.90;3.53;;;;;;;16.77;58.37;99915.25;1087057;47;20045;-83
2023/06/06 03:27:17;;;;;;;4.60;3.03;;;;;;;16.73;58.37;99910.44;1087209;47;20046;-83
2023/06/06 03:28:20;;;;;;;5.43;3.65;;;;;;;16.60;58.78;99909.25;1087224;47;20022;-82
2023/06/06 03:29:25;;;;;;;6.82;3.88;;;;;;;16.55;58.99;99911.66;1087230;47;20057;-84
2023/06/06 03:30:26;;;;;;;5.47;3.67;;;;;;;16.63;58.62;99911.56;1087113;46;20050;-83
2023/06/06 03:31:30;;;;;;;7.53;4.28;;;;;;;16.47;58.96;99915.31;1087051;47;20034;-83
2023/06/06 03:32:32;;;;;;;5.45;3.63;;;;;;;16.40;59.46;99921.63;1087058;47;20034;-84
2023/06/06 03:33:37;;;;;;;6.10;3.70;;;;;;;16.41;59.23;99915.22;1087119;54;20086;-83
2023/06/06 03:34:39;;;;;;;6.88;3.72;;;;;;;16.41;59.25;99909.81;1087152;47;20031;-82
2023/06/06 03:35:43;;;;;;;7.40;4.30;;;;;;;16.36;59.41;99911.19;1087130;51;20027;-83
2023/06/06 03:36:48;;;;;;;6.40;3.22;;;;;;;16.38;59.63;99916.44;1087104;47;20023;-83
2023/06/06 03:37:55;;;;;;;5.53;3.75;;;;;;;16.44;59.14;99909.41;1087274;47;20030;-82
2023/06/06 03:38:59;;;;;;;5.85;3.70;;;;;;;16.41;59.38;99912.50;1087229;54;20097;-82
2023/06/06 03:40:00;;;;;;;5.78;3.72;;;;;;;16.40;59.31;99908.13;1087185;47;20027;-83
2023/06/06 03:41:05;;;;;;;6.90;3.75;;;;;;;16.43;59.21;99916.69;1087141;47;20031;-84
2023/06/06 03:42:08;;;;;;;5.40;3.60;;;;;;;16.44;59.18;99912.13;1087204;47;20022;-84
2023/06/06 03:43:15;;;;;;;5.32;3.50;;;;;;;16.30;59.75;99917.34;1090415;39;20518;-83
2023/06/06 03:44:17;;;;;;;9.45;4.45;;;;;;;16.23;59.90;99919.13;1087235;47;20026;-83
2023/06/06 03:45:23;;;;;;;4.95;3.00;;;;;;;16.33;59.82;99918.84;1090697;39;20379;-83
2023/06/06 03:46:24;;;;;;;5.07;3.60;;;;;;;16.18;60.10;99921.50;1087043;47;20026;-83
2023/06/06 03:47:28;;;;;;;6.68;4.10;;;;;;;16.18;59.97;99926.91;1087241;47;20038;-83
2023/06/06 03:48:31;;;;;;;5.57;3.80;;;;;;;16.21;59.83;99921.16;1087270;47;20029;-84
2023/06/06 03:49:36;;;;;;;6.03;3.50;;;;;;;16.25;60.05;99925.13;1087134;54;20033;-84
2023/06/06 03:50:38;;;;;;;5.20;3.30;;;;;;;16.34;59.75;99932.13;1087111;47;20034;-84
2023/06/06 03:51:44;;;;;;;4.93;2.97;;;;;;;16.42;59.20;99922.28;1087065;46;20026;-84
2023/06/06 03:52:48;;;;;;;5.53;3.67;;;;;;;16.35;59.83;99931.09;1087272;47;20027;-82
2023/06/06 03:53:51;;;;;;;5.60;3.13;;;;;;;16.41;59.29;99917.91;1087172;54;20129;-82
2023/06/06 03:54:53;;;;;;;5.25;3.05;;;;;;;16.47;59.30;99926.09;1087210;47;20019;-83
2023/06/06 03:55:59;;;;;;;4.90;3.10;;;;;;;16.53;58.84;99919.13;1087262;54;20034;-83
2023/06/06 03:57:00;;;;;;;4.43;2.88;;;;;;;16.55;59.17;99913.53;1087068;47;20033;-81
2023/06/06 03:58:04;;;;;;;5.65;2.92;;;;;;;16.54;58.93;99928.88;1087166;47;20057;-84
2023/06/06 03:59:11;;;;;;;4.43;2.85;;;;;;;16.56;59.11;99923.31;1087165;47;20118;-82
2023/06/06 04:00:17;;;;;;;4.75;2.83;;;;;;;16.58;58.85;99921.25;1087214;47;20050;-84
2023/06/06 04:01:21;;;;;;;4.80;2.88;;;;;;;16.62;58.56;99926.09;1087153;54;20061;-85
2023/06/06 04:02:25;;;;;;;4.60;2.97;;;;;;;16.60;58.67;99924.59;1087068;47;20022;-83
2023/06/06 04:03:26;;;;;;;4.43;2.72;;;;;;;16.57;58.97;99928.50;1087124;47;20029;-83
2023/06/06 04:04:30;;;;;;;4.93;3.13;;;;;;;16.56;58.82;99924.13;1087238;54;20391;-83
2023/06/06 04:05:33;;;;;;;4.32;2.80;;;;;;;16.49;58.97;99924.03;1087176;51;20031;-82
2023/06/06 04:06:37;;;;;;;5.22;3.13;;;;;;;16.48;58.99;99929.63;1087076;47;20026;-81
2023/06/06 04:07:41;;;;;;;5.10;3.20;;;;;;;16.38;59.13;99922.66;1087193;47;20046;-83
2023/06/06 04:08:45;;;;;;;6.25;3.90;;;;;;;16.29;59.49;99929.16;1087106;46;20072;-82
2023/06/06 04:09:47;;;;;;;6.13;4.13;;;;;;;16.38;59.56;99924.53;1087222;47;20022;-83
2023/06/06 04:10:51;;;;;;;5.10;3.28;;;;;;;16.46;59.25;99929.81;1087094;54;20034;-84
2023/06/06 04:11:52;;;;;;;4.45;3.13;;;;;;;16.47;59.06;99925.25;1087118;47;20037;-84
2023/06/06 04:12:56;;;;;;;4.70;3.00;;;;;;;16.46;59.20;99929.81;1087125;54;20042;-83
2023/06/06 04:13:58;;;;;;;4.53;2.60;;;;;;;16.53;58.95;99928.03;1087446;54;20027;-84
2023/06/06 04:15:04;;;;;;;4.65;2.85;;;;;;;16.48;59.08;99924.22;1088026;39;20266;-83
2023/06/06 04:16:06;;;;;;;4.72;2.88;;;;;;;16.55;58.80;99927.03;1087052;47;20087;-83
2023/06/06 04:17:10;;;;;;;4.68;2.55;;;;;;;16.58;58.57;99926.66;1087062;47;20027;-83
2023/06/06 04:18:12;;;;;;;4.85;3.10;;;;;;;16.59;58.60;99926.47;1087079;47;20044;-83
2023/06/06 04:19:16;;;;;;;4.28;2.70;;;;;;;16.57;58.72;99925.81;1087051;47;20053;-82
2023/06/06 04:20:19;;;;;;;5.18;2.45;;;;;;;16.63;58.61;99926.91;1087226;47;20053;-85
2023/06/06 04:21:23;;;;;;;5.22;3.05;;;;;;;16.62;58.61;99930.63;1086998;46;20109;-82
2023/06/06 04:22:24;;;;;;;4.90;2.65;;;;;;;16.59;58.81;99929.16;1087171;47;20042;-84
2023/06/06 04:23:28;;;;;;;4.63;2.92;;;;;;;16.59;58.81;99934.56;1087126;47;20090;-83
2023/06/06 04:24:29;;;;;;;5.43;2.88;;;;;;;16.62;58.80;99933.34;1087166;47;20058;-85
2023/06/06 04:25:33;;;;;;;4.43;2.65;;;;;;;16.59;58.49;99929.16;1087044;47;20046;-82
2023/06/06 04:26:36;;;;;;;4.80;3.05;;;;;;;16.55;58.82;99933.25;1087108;47;20678;-85
2023/06/06 04:27:41;;;;;;;4.68;3.13;;;;;;;16.49;58.70;99934.00;1087242;47;20045;-84
2023/06/06 04:28:48;;;;;;;4.82;3.03;;;;;;;16.59;58.57;99929.16;1087157;54;20031;-83
2023/06/06 04:29:53;;;;;;;5.13;2.95;;;;;;;16.62;58.72;99934.19;1087154;46;20042;-84
2023/06/06 04:30:57;;;;;;;4.53;2.70;;;;;;;16.66;58.27;99940.88;1087187;54;20057;-83
2023/06/06 04:32:01;;;;;;;4.03;2.55;;;;;;;16.71;58.46;99943.00;1087085;47;20099;-83
2023/06/06 04:33:05;;;;;;;4.18;2.47;;;;;;;16.73;58.05;99946.38;1087126;47;20065;-84
2023/06/06 04:34:10;;;;;;;4.55;2.75;;;;;;;16.71;58.12;99947.59;1087130;47;20023;-83
2023/06/06 04:35:11;;;;;;;4.80;2.83;;;;;;;16.75;58.27;99946.16;1087044;47;20065;-83
2023/06/06 04:36:17;;;;;;;4.88;2.70;;;;;;;16.74;58.25;99948.03;1087141;51;20022;-84
2023/06/06 04:37:20;;;;;;;4.78;2.67;;;;;;;16.77;58.09;99954.91;1086912;54;20091;-83
2023/06/06 04:38:29;;;;;;;4.75;2.85;;;;;;;16.76;58.32;99950.53;1087130;47;20037;-83
2023/06/06 04:39:31;;;;;;;6.43;3.80;;;;;;;16.53;58.85;99946.94;1087090;47;20089;-87
2023/06/06 04:40:36;;;;;;;5.38;3.13;;;;;;;16.53;58.98;99955.03;1087150;47;20049;-85
2023/06/06 04:41:39;;;;;;;4.70;3.17;;;;;;;16.62;58.46;99953.09;1088058;39;20321;-84
2023/06/06 04:42:45;;;;;;;5.00;3.40;;;;;;;16.59;58.61;99956.16;1087355;54;20069;-83
2023/06/06 04:43:49;;;;;;;6.35;3.75;;;;;;;16.56;58.90;99947.59;1087122;47;20027;-84
2023/06/06 04:44:53;;;;;;;7.25;3.83;;;;;;;16.46;59.11;99967.59;1087078;47;20086;-83
2023/06/06 04:45:57;;;;;;;6.05;3.85;;;;;;;16.50;59.13;99962.66;1087047;47;20038;-83
2023/06/06 04:47:04;;;;;;;6.40;4.32;;;;;;;16.53;59.05;99951.50;1087048;47;20703;-83
2023/06/06 04:48:05;;;;;;;5.47;3.50;;;;;;;16.63;58.81;99954.72;1087065;47;20033;-85
2023/06/06 04:49:09;;;;;;;6.25;3.85;;;;;;;16.67;58.57;99947.94;1087098;47;20026;-84
2023/06/06 04:50:11;;;;;;;4.95;3.10;;;;;;;16.75;58.16;99948.88;1087209;54;20030;-84
2023/06/06 04:51:15;;;;;;;4.57;3.05;;;;;;;16.77;58.21;99947.66;1087090;47;20038;-83
2023/06/06 04:52:18;;;;;;;4.70;2.60;;;;;;;16.74;58.42;99947.19;1087156;54;20031;-83
2023/06/06 04:53:23;;;;;;;4.50;3.00;;;;;;;16.76;57.99;99947.84;1087527;54;20045;-83
2023/06/06 04:54:24;;;;;;;5.32;3.33;;;;;;;16.77;58.17;99952.22;1088056;54;20026;-85
2023/06/06 04:55:28;;;;;;;6.53;3.28;;;;;;;16.79;58.08;99951.00;1087846;54;20034;-84
2023/06/06 04:56:30;;;;;;;6.18;3.30;;;;;;;16.76;58.15;99947.84;1087811;54;20048;-83
2023/06/06 04:57:33;;;;;;;5.90;3.55;;;;;;;16.69;58.55;99951.31;1087985;54;20035;-83
2023/06/06 04:58:34;;;;;;;5.32;3.58;;;;;;;16.64;58.58;99947.50;1087447;54;20023;-84
2023/06/06 04:59:39;;;;;;;5.53;3.72;;;;;;;16.52;59.07;99956.03;1087305;48;20037;-84
2023/06/06 05:00:45;;;;;;;5.15;3.78;;;;;;;16.59;59.00;99950.75;1087104;54;20733;-85
2023/06/06 05:01:48;;;;;;;6.10;3.80;;;;;;;16.62;58.59;99950.38;1086914;54;20041;-83